Time;durP1;ratioP1;P1;durP2;ratioP2;P2;SDS_P1;SDS_P2;PMS_P1;PMS_P2;Temp;Humidity;BMP_temperature;BMP_pressure;BME280_temperature;BME280_humidity;BME280_pressure;Samples;Min_cycle;Max_cycle;Signal;HPM_P1;HPM_P2
2022/04/30 00:01:01;;;;;;;16.37;11.50;;;14.30;99.90;;;;;;10394174;28;20221;-69
2022/04/30 00:06:02;;;;;;;18.60;12.23;;;14.30;99.90;;;;;;10388543;28;20356;-70
2022/04/30 00:11:03;;;;;;;17.60;11.77;;;14.20;99.90;;;;;;10404123;28;20846;-69
2022/04/30 00:16:04;;;;;;;19.00;11.87;;;14.20;99.90;;;;;;10385926;28;20595;-69
2022/04/30 00:21:08;;;;;;;15.93;10.80;;;14.10;99.90;;;;;;10385865;28;20223;-69
2022/04/30 00:26:08;;;;;;;18.10;12.13;;;14.10;99.90;;;;;;10387118;28;20232;-70
2022/04/30 00:31:09;;;;;;;19.63;12.87;;;14.00;99.90;;;;;;10395454;28;20213;-69
2022/04/30 00:36:10;;;;;;;21.77;12.33;;;14.00;99.90;;;;;;10393614;28;20473;-69
2022/04/30 00:41:11;;;;;;;19.33;12.23;;;13.90;99.90;;;;;;10397273;28;20224;-69
2022/04/30 00:46:13;;;;;;;17.33;11.27;;;13.80;99.90;;;;;;10385519;28;20235;-69
2022/04/30 00:51:18;;;;;;;16.77;11.30;;;13.80;99.90;;;;;;10393240;28;20227;-69
2022/04/30 00:56:26;;;;;;;16.57;11.90;;;13.70;99.90;;;;;;10387588;28;20219;-69
2022/04/30 01:01:34;;;;;;;17.20;12.00;;;13.60;99.90;;;;;;10394694;28;20216;-70
2022/04/30 01:06:56;;;;;;;18.60;11.90;;;13.50;99.90;;;;;;10404680;28;20282;-70
2022/04/30 01:12:06;;;;;;;16.80;11.67;;;13.40;99.90;;;;;;10389729;28;20230;-69
2022/04/30 01:17:09;;;;;;;15.37;12.00;;;13.30;99.90;;;;;;10386199;28;20594;-69
2022/04/30 01:22:24;;;;;;;17.70;11.93;;;13.20;99.90;;;;;;10383527;28;20213;-69
2022/04/30 01:27:31;;;;;;;19.27;12.23;;;13.10;99.90;;;;;;10391329;28;20227;-70
2022/04/30 01:37:54;;;;;;;16.77;12.40;;;12.90;99.90;;;;;;10387523;28;20234;-69
2022/04/30 01:42:58;;;;;;;16.53;12.07;;;12.80;99.90;;;;;;10390641;28;20224;-70
2022/04/30 01:48:00;;;;;;;17.07;12.63;;;12.70;99.90;;;;;;10392796;28;20264;-69
2022/04/30 01:53:02;;;;;;;18.10;12.10;;;12.60;99.90;;;;;;10384345;28;20220;-69
2022/04/30 01:58:03;;;;;;;16.83;12.90;;;12.50;99.90;;;;;;10391912;28;20273;-69
2022/04/30 02:03:07;;;;;;;17.53;12.93;;;12.50;99.90;;;;;;10384952;28;20703;-70
2022/04/30 02:08:18;;;;;;;23.53;13.40;;;12.40;99.90;;;;;;10392793;28;20422;-70
2022/04/30 02:13:23;;;;;;;17.97;13.37;;;12.40;99.90;;;;;;10381687;28;20213;-70
2022/04/30 02:18:25;;;;;;;22.07;13.40;;;12.40;99.90;;;;;;10381973;28;20766;-71
2022/04/30 02:23:25;;;;;;;19.07;13.17;;;12.30;99.90;;;;;;10384597;28;20227;-69
2022/04/30 02:28:27;;;;;;;16.00;12.80;;;12.20;99.90;;;;;;10389197;28;20315;-68
2022/04/30 02:33:27;;;;;;;16.80;12.67;;;12.10;99.90;;;;;;10386666;28;20259;-70
2022/04/30 02:38:28;;;;;;;18.10;13.33;;;12.00;99.90;;;;;;10390535;28;20419;-69
2022/04/30 02:43:30;;;;;;;17.43;12.90;;;11.90;99.90;;;;;;10384951;28;20228;-70
2022/04/30 02:48:31;;;;;;;16.07;13.33;;;11.80;99.90;;;;;;10396609;28;20777;-69
2022/04/30 02:53:32;;;;;;;15.40;12.23;;;11.80;99.90;;;;;;10393222;28;20303;-68
2022/04/30 03:03:54;;;;;;;15.73;13.03;;;11.70;99.90;;;;;;10396928;28;20226;-69
2022/04/30 03:08:55;;;;;;;19.80;13.80;;;11.70;99.90;;;;;;10389031;28;20327;-69
2022/04/30 03:13:56;;;;;;;18.37;13.20;;;11.70;99.90;;;;;;10389919;28;20212;-70
2022/04/30 03:24:20;;;;;;;16.50;13.50;;;11.50;99.90;;;;;;10389862;28;20217;-69
2022/04/30 03:29:28;;;;;;;17.83;14.50;;;11.50;99.90;;;;;;10389504;28;20224;-68
2022/04/30 03:34:32;;;;;;;17.10;13.23;;;11.50;99.90;;;;;;10392023;28;20216;-69
2022/04/30 03:39:33;;;;;;;18.03;12.80;;;11.50;99.90;;;;;;10397123;28;20235;-69
2022/04/30 03:44:34;;;;;;;16.47;13.97;;;11.50;99.90;;;;;;10396813;28;20232;-69
2022/04/30 03:49:34;;;;;;;18.87;13.83;;;11.50;99.90;;;;;;10399191;28;20208;-70
2022/04/30 03:54:36;;;;;;;16.50;14.07;;;11.40;99.90;;;;;;10394143;28;20228;-69
2022/04/30 03:59:37;;;;;;;17.93;13.43;;;11.50;99.90;;;;;;10399024;28;20239;-70
2022/04/30 04:04:37;;;;;;;18.80;13.67;;;11.40;99.90;;;;;;10392135;28;20231;-69
2022/04/30 04:09:38;;;;;;;15.30;13.13;;;11.50;99.90;;;;;;10394546;28;20221;-70
2022/04/30 04:19:58;;;;;;;16.30;13.67;;;11.50;99.90;;;;;;10394565;28;20213;-68
2022/04/30 04:30:17;;;;;;;16.63;14.83;;;11.40;99.90;;;;;;10395014;28;20217;-69
2022/04/30 04:35:18;;;;;;;19.97;13.90;;;11.30;99.90;;;;;;10388171;28;20178;-68
2022/04/30 04:40:20;;;;;;;18.83;14.90;;;11.30;99.90;;;;;;10402884;28;20205;-70
2022/04/30 04:45:22;;;;;;;17.63;13.83;;;11.20;99.90;;;;;;10390173;28;20208;-69
2022/04/30 04:50:23;;;;;;;17.70;14.50;;;11.10;99.90;;;;;;10386353;28;20276;-70
2022/04/30 04:55:24;;;;;;;17.17;14.20;;;11.20;99.90;;;;;;10391871;28;20457;-69
2022/04/30 05:00:25;;;;;;;15.63;14.03;;;11.20;99.90;;;;;;10395301;28;20225;-69
2022/04/30 05:05:25;;;;;;;19.33;14.70;;;11.20;99.90;;;;;;10392954;28;20224;-68
2022/04/30 05:10:26;;;;;;;15.97;14.20;;;11.20;99.90;;;;;;10385909;28;20217;-68
2022/04/30 05:15:26;;;;;;;20.70;15.17;;;11.20;99.90;;;;;;10404863;28;20299;-68
2022/04/30 05:20:27;;;;;;;20.00;15.63;;;11.10;99.90;;;;;;10383899;28;20220;-69
2022/04/30 05:25:28;;;;;;;17.37;15.07;;;11.20;99.90;;;;;;10391165;28;21229;-68
2022/04/30 05:30:28;;;;;;;18.40;15.83;;;11.20;99.90;;;;;;10386803;28;20323;-70
2022/04/30 05:35:29;;;;;;;17.80;15.17;;;11.20;99.90;;;;;;10389631;28;20213;-69
2022/04/30 05:40:29;;;;;;;16.87;15.07;;;11.20;99.90;;;;;;10386541;28;20227;-68
2022/04/30 05:45:33;;;;;;;17.43;13.83;;;11.20;99.90;;;;;;10387561;28;20229;-68
2022/04/30 05:50:33;;;;;;;17.97;15.53;;;11.30;99.90;;;;;;10392640;28;20292;-68
2022/04/30 05:55:34;;;;;;;15.07;13.57;;;11.20;99.90;;;;;;10387297;28;20212;-68
2022/04/30 06:00:35;;;;;;;18.17;13.20;;;11.20;99.90;;;;;;10387814;28;20232;-69
2022/04/30 06:05:37;;;;;;;18.27;15.53;;;11.10;99.90;;;;;;10394788;28;20735;-68
2022/04/30 06:10:38;;;;;;;16.33;14.40;;;11.20;99.90;;;;;;10385550;28;20221;-69
2022/04/30 06:15:38;;;;;;;20.90;14.63;;;11.20;99.90;;;;;;10390584;28;20714;-68
2022/04/30 06:20:42;;;;;;;16.37;14.40;;;11.20;99.90;;;;;;10387449;28;20808;-68
2022/04/30 06:25:43;;;;;;;17.07;14.07;;;11.20;99.90;;;;;;10384489;28;20719;-68
2022/04/30 06:30:44;;;;;;;16.83;14.30;;;11.20;99.90;;;;;;10390737;28;20213;-68
2022/04/30 06:35:44;;;;;;;15.17;13.63;;;11.20;99.90;;;;;;10387607;28;20691;-69
2022/04/30 06:40:46;;;;;;;15.70;13.67;;;11.20;99.90;;;;;;10394823;28;20694;-68
2022/04/30 06:45:47;;;;;;;16.13;13.97;;;11.30;99.90;;;;;;10384075;28;20229;-68
2022/04/30 06:50:48;;;;;;;16.27;14.13;;;11.40;99.90;;;;;;10381972;28;20217;-67
2022/04/30 07:06:21;;;;;;;13.77;12.37;;;11.40;99.90;;;;;;10383142;28;20240;-69
2022/04/30 07:11:22;;;;;;;15.90;13.93;;;11.40;99.90;;;;;;10389689;28;20790;-69
2022/04/30 07:16:26;;;;;;;16.03;13.23;;;11.50;99.90;;;;;;10389598;28;20217;-68
2022/04/30 07:21:28;;;;;;;14.60;12.97;;;11.60;99.90;;;;;;10380307;28;20640;-68
2022/04/30 07:26:29;;;;;;;16.27;13.03;;;11.50;99.90;;;;;;10390142;28;20235;-68
2022/04/30 07:31:29;;;;;;;15.63;13.10;;;11.60;99.90;;;;;;10392190;28;20226;-69
2022/04/30 07:36:31;;;;;;;15.73;12.43;;;11.60;99.90;;;;;;10388251;28;20594;-68
2022/04/30 07:41:32;;;;;;;17.53;13.60;;;11.60;99.90;;;;;;10390355;28;20225;-69
2022/04/30 07:46:32;;;;;;;16.23;12.63;;;11.60;99.90;;;;;;10393398;28;20229;-68
2022/04/30 07:51:42;;;;;;;15.90;12.63;;;11.70;99.90;;;;;;10391224;28;20232;-68
2022/04/30 07:56:43;;;;;;;14.67;13.17;;;11.70;99.90;;;;;;10396027;28;20212;-68
2022/04/30 08:01:43;;;;;;;13.87;12.00;;;11.80;99.90;;;;;;10403972;28;20303;-69
2022/04/30 08:06:44;;;;;;;13.03;11.63;;;12.00;99.90;;;;;;10390340;28;20248;-69
2022/04/30 08:11:45;;;;;;;13.83;11.43;;;12.20;99.90;;;;;;10395537;28;20223;-67
2022/04/30 08:16:45;;;;;;;12.37;11.07;;;12.20;99.90;;;;;;10391476;28;20228;-68
2022/04/30 08:21:48;;;;;;;15.10;12.27;;;12.30;99.90;;;;;;10389305;28;20252;-68
2022/04/30 08:26:49;;;;;;;12.53;11.27;;;12.40;99.90;;;;;;10390676;28;20232;-68
2022/04/30 08:31:50;;;;;;;11.97;10.67;;;12.20;99.90;;;;;;10388381;28;20224;-69
2022/04/30 08:36:50;;;;;;;11.93;10.73;;;12.10;99.90;;;;;;10391716;28;20681;-70
2022/04/30 08:41:51;;;;;;;12.33;10.97;;;12.00;99.90;;;;;;10393448;28;20239;-68
2022/04/30 08:46:51;;;;;;;13.63;11.30;;;12.20;99.90;;;;;;10386072;28;20312;-68
2022/04/30 08:51:52;;;;;;;11.17;10.07;;;12.20;99.90;;;;;;10391168;28;20225;-68
2022/04/30 08:56:55;;;;;;;12.03;10.30;;;12.40;99.90;;;;;;10387803;28;20237;-69
2022/04/30 09:02:01;;;;;;;10.43;9.00;;;12.40;99.90;;;;;;10397938;28;20228;-68
2022/04/30 09:07:03;;;;;;;10.27;9.17;;;12.20;99.90;;;;;;10386402;28;20251;-68
2022/04/30 09:12:13;;;;;;;10.73;8.70;;;12.10;99.90;;;;;;10392094;28;20231;-71
2022/04/30 09:17:15;;;;;;;11.40;9.23;;;12.10;99.90;;;;;;10385433;28;20705;-67
2022/04/30 09:22:27;;;;;;;9.53;8.63;;;11.90;99.90;;;;;;10393022;28;20231;-68
2022/04/30 09:27:28;;;;;;;10.23;8.17;;;11.80;99.90;;;;;;10391436;28;20301;-68
2022/04/30 09:32:29;;;;;;;9.73;7.47;;;11.80;99.90;;;;;;10381243;28;20232;-68
2022/04/30 09:37:43;;;;;;;8.20;7.33;;;11.90;99.90;;;;;;10386741;28;20260;-69
2022/04/30 09:42:46;;;;;;;8.33;7.03;;;11.90;99.90;;;;;;10387834;28;20228;-69
2022/04/30 09:47:48;;;;;;;8.37;7.17;;;11.90;99.90;;;;;;10386788;28;20224;-70
2022/04/30 09:58:14;;;;;;;8.57;6.77;;;12.10;99.90;;;;;;10392109;28;20632;-69
2022/04/30 10:03:16;;;;;;;9.63;7.20;;;12.00;99.90;;;;;;10385343;28;20222;-69
2022/04/30 10:08:17;;;;;;;8.37;7.40;;;11.80;99.90;;;;;;10388463;28;20232;-69
2022/04/30 10:13:39;;;;;;;8.83;7.57;;;11.70;99.90;;;;;;10383213;28;20217;-70
2022/04/30 10:18:43;;;;;;;7.77;6.57;;;11.70;99.90;;;;;;10386935;28;20700;-69
2022/04/30 10:23:44;;;;;;;7.90;6.20;;;11.50;99.90;;;;;;10383014;28;20251;-69
2022/04/30 10:28:46;;;;;;;8.03;6.80;;;11.50;99.90;;;;;;10387369;28;20228;-69
2022/04/30 10:33:50;;;;;;;7.40;6.67;;;11.30;99.90;;;;;;10392173;28;20219;-69
2022/04/30 10:39:06;;;;;;;6.43;5.80;;;11.40;99.90;;;;;;10393420;28;20224;-68
2022/04/30 10:44:07;;;;;;;7.20;6.50;;;11.60;99.90;;;;;;10382764;28;20228;-70
2022/04/30 10:49:07;;;;;;;7.40;6.10;;;11.80;99.90;;;;;;10389909;28;20714;-68
2022/04/30 10:54:11;;;;;;;7.67;5.70;;;12.00;99.90;;;;;;10382536;28;20221;-69
2022/04/30 10:59:21;;;;;;;8.80;6.67;;;12.30;99.90;;;;;;10394720;28;20348;-70
2022/04/30 11:04:24;;;;;;;6.00;5.40;;;12.30;99.90;;;;;;10396106;28;20286;-68
2022/04/30 11:09:25;;;;;;;7.37;5.57;;;12.60;99.90;;;;;;10391086;28;20225;-68
2022/04/30 11:14:27;;;;;;;8.20;5.93;;;12.90;99.90;;;;;;10398171;28;20221;-69
2022/04/30 11:19:28;;;;;;;6.80;6.20;;;12.90;99.90;;;;;;10397581;28;20217;-69
2022/04/30 11:24:31;;;;;;;7.20;6.00;;;13.00;99.90;;;;;;10388703;28;20260;-70
2022/04/30 11:29:37;;;;;;;6.37;5.73;;;13.20;99.90;;;;;;10396225;28;20642;-69
2022/04/30 11:34:39;;;;;;;7.80;6.60;;;13.80;99.90;;;;;;10392882;28;20290;-68
2022/04/30 11:39:39;;;;;;;6.73;5.60;;;13.80;99.90;;;;;;10392549;28;20697;-68
2022/04/30 11:44:40;;;;;;;6.83;5.67;;;14.20;99.90;;;;;;10396450;28;20234;-69
2022/04/30 11:49:41;;;;;;;6.13;5.53;;;14.40;99.90;;;;;;10392652;28;20684;-68
2022/04/30 11:54:42;;;;;;;10.03;6.73;;;14.80;99.90;;;;;;10391772;28;20219;-69
2022/04/30 11:59:43;;;;;;;6.67;6.07;;;14.50;99.90;;;;;;10392313;28;20218;-68
2022/04/30 12:04:43;;;;;;;7.20;5.97;;;14.40;99.90;;;;;;10387869;28;20233;-69
2022/04/30 12:09:47;;;;;;;8.63;6.70;;;14.80;99.90;;;;;;10396152;28;20211;-70
2022/04/30 12:14:53;;;;;;;7.73;6.97;;;14.70;99.90;;;;;;10387292;28;20764;-68
2022/04/30 12:25:28;;;;;;;8.20;6.67;;;14.50;99.90;;;;;;10385832;28;20234;-70
2022/04/30 12:30:29;;;;;;;7.23;6.30;;;15.20;99.90;;;;;;10389872;28;20215;-69
2022/04/30 12:35:40;;;;;;;8.03;6.40;;;16.00;99.90;;;;;;10390122;28;20222;-69
2022/04/30 12:40:50;;;;;;;7.83;6.70;;;16.70;99.90;;;;;;10390869;28;20276;-69
2022/04/30 12:45:53;;;;;;;7.47;6.57;;;16.70;99.90;;;;;;10388616;28;20239;-68
2022/04/30 12:50:55;;;;;;;8.10;7.30;;;16.70;99.90;;;;;;10391710;28;20234;-68
2022/04/30 12:55:57;;;;;;;7.43;6.73;;;17.10;99.90;;;;;;10396187;28;20227;-69
2022/04/30 13:00:57;;;;;;;8.97;6.53;;;17.00;99.90;;;;;;10393854;28;20244;-69
2022/04/30 13:06:02;;;;;;;8.07;7.17;;;16.60;99.90;;;;;;10391432;28;20226;-69
2022/04/30 13:16:22;;;;;;;7.47;6.77;;;15.30;99.90;;;;;;10386299;28;20259;-69
2022/04/30 13:21:23;;;;;;;8.50;7.23;;;15.30;99.90;;;;;;10392638;28;20254;-69
2022/04/30 13:26:23;;;;;;;10.17;8.03;;;15.30;99.90;;;;;;10384768;28;20275;-69
2022/04/30 13:31:27;;;;;;;9.00;7.50;;;15.30;99.90;;;;;;10392455;28;20231;-68
2022/04/30 13:36:28;;;;;;;10.37;8.60;;;15.40;99.90;;;;;;10389080;28;20216;-69
2022/04/30 13:41:29;;;;;;;10.37;8.70;;;15.60;99.90;;;;;;10384844;28;20221;-69
2022/04/30 13:46:29;;;;;;;10.53;8.97;;;15.60;99.90;;;;;;10392043;28;20749;-69
2022/04/30 13:51:32;;;;;;;10.13;8.20;;;15.50;99.90;;;;;;10388920;28;20228;-69
2022/04/30 13:56:37;;;;;;;9.60;8.70;;;15.70;99.90;;;;;;10393781;28;20232;-68
2022/04/30 14:01:37;;;;;;;11.17;9.10;;;15.90;99.90;;;;;;10383437;28;20351;-68
2022/04/30 14:06:41;;;;;;;10.50;8.93;;;16.00;99.90;;;;;;10393745;28;20779;-68
2022/04/30 14:11:41;;;;;;;11.53;9.90;;;16.30;99.90;;;;;;10387912;28;20337;-69
2022/04/30 14:16:42;;;;;;;12.07;9.20;;;16.80;99.90;;;;;;10387498;28;20317;-68
2022/04/30 14:21:43;;;;;;;10.47;8.87;;;16.50;99.90;;;;;;10389463;28;20729;-70
2022/04/30 14:26:43;;;;;;;12.13;9.60;;;16.20;99.90;;;;;;10383501;28;20257;-69
2022/04/30 14:31:44;;;;;;;11.20;9.43;;;15.80;99.90;;;;;;10389360;28;20231;-71
2022/04/30 14:36:44;;;;;;;9.73;8.40;;;15.60;99.90;;;;;;10399947;28;20278;-69
2022/04/30 14:41:45;;;;;;;8.83;7.43;;;15.30;99.90;;;;;;10394745;28;20229;-68
2022/04/30 14:46:46;;;;;;;14.33;9.37;;;15.30;99.90;;;;;;10395823;28;20232;-69
2022/04/30 14:51:47;;;;;;;12.47;9.80;;;15.10;99.90;;;;;;10407433;28;20236;-69
2022/04/30 14:56:49;;;;;;;10.77;9.10;;;14.80;99.90;;;;;;10394837;28;20221;-68
2022/04/30 15:01:51;;;;;;;12.33;9.23;;;14.70;99.90;;;;;;10396858;28;20225;-69
2022/04/30 15:06:52;;;;;;;12.53;10.10;;;14.70;99.90;;;;;;10391918;28;20629;-69
2022/04/30 15:11:53;;;;;;;11.57;9.20;;;14.70;99.90;;;;;;10399949;28;20225;-69
2022/04/30 15:16:56;;;;;;;11.87;9.13;;;14.80;99.90;;;;;;10398807;28;20301;-67
2022/04/30 15:21:57;;;;;;;10.53;8.90;;;14.70;99.90;;;;;;10394645;28;20241;-68
2022/04/30 15:26:58;;;;;;;11.03;9.23;;;14.60;99.90;;;;;;10404413;28;20259;-69
2022/04/30 15:32:00;;;;;;;11.77;9.40;;;14.70;99.90;;;;;;10390385;28;20223;-69
2022/04/30 15:37:00;;;;;;;12.67;9.00;;;14.50;99.90;;;;;;10391853;28;20217;-68
2022/04/30 15:42:01;;;;;;;12.20;9.40;;;14.40;99.90;;;;;;10395567;28;20228;-68
2022/04/30 15:52:22;;;;;;;11.23;8.50;;;14.40;99.90;;;;;;10391165;28;20235;-69
2022/04/30 15:57:25;;;;;;;12.33;8.83;;;14.50;99.90;;;;;;10395378;28;20214;-69
2022/04/30 16:02:25;;;;;;;17.30;10.10;;;14.70;99.90;;;;;;10394643;28;20329;-69
2022/04/30 16:07:27;;;;;;;12.87;8.47;;;15.00;99.90;;;;;;10390486;28;20321;-69
2022/04/30 16:12:28;;;;;;;9.30;7.93;;;15.10;99.90;;;;;;10389774;28;20767;-68
2022/04/30 16:17:30;;;;;;;12.57;8.50;;;14.80;99.90;;;;;;10391151;28;20238;-69
2022/04/30 16:22:31;;;;;;;11.97;8.80;;;14.50;99.90;;;;;;10387841;28;20287;-69
2022/04/30 16:27:31;;;;;;;14.13;9.60;;;14.40;99.90;;;;;;10391690;28;20310;-68
2022/04/30 16:32:32;;;;;;;13.30;9.33;;;14.10;99.90;;;;;;10389897;28;20223;-69
2022/04/30 16:37:33;;;;;;;10.77;9.23;;;14.10;99.90;;;;;;10391369;28;20280;-69
2022/04/30 16:42:33;;;;;;;13.60;9.37;;;14.10;99.90;;;;;;10389865;28;20225;-68
2022/04/30 16:47:34;;;;;;;10.17;8.27;;;14.00;99.90;;;;;;10387401;28;20773;-68
2022/04/30 16:52:34;;;;;;;9.23;7.70;;;14.10;99.90;;;;;;10386137;28;20223;-69
2022/04/30 16:57:36;;;;;;;11.27;8.30;;;14.30;99.90;;;;;;10392079;28;20205;-69
2022/04/30 17:02:45;;;;;;;12.17;8.50;;;14.30;99.90;;;;;;10399761;28;20221;-69
2022/04/30 17:07:49;;;;;;;11.07;7.97;;;14.10;99.90;;;;;;10389638;28;20263;-69
2022/04/30 17:12:53;;;;;;;13.70;7.87;;;14.00;99.90;;;;;;10388363;28;20225;-68
2022/04/30 17:17:54;;;;;;;12.50;8.37;;;13.90;99.90;;;;;;10396779;28;20256;-68
2022/04/30 17:22:56;;;;;;;9.37;8.07;;;13.70;99.90;;;;;;10386987;28;20240;-68
2022/04/30 17:27:56;;;;;;;13.27;8.70;;;13.40;99.90;;;;;;10383337;28;20300;-68
2022/04/30 17:38:18;;;;;;;10.53;7.87;;;13.10;99.90;;;;;;10385790;28;20229;-69
2022/04/30 17:43:19;;;;;;;12.40;8.60;;;13.00;99.90;;;;;;10391388;28;20228;-69
2022/04/30 17:48:20;;;;;;;10.33;8.53;;;12.90;99.90;;;;;;10386056;28;20229;-69
2022/04/30 17:53:21;;;;;;;12.07;9.37;;;12.70;99.90;;;;;;10390960;28;20318;-69
2022/04/30 17:58:22;;;;;;;14.77;9.30;;;12.60;99.90;;;;;;10385512;28;20311;-69
2022/04/30 18:03:23;;;;;;;9.97;8.93;;;12.60;99.90;;;;;;10392161;28;20209;-68
2022/04/30 18:08:23;;;;;;;12.87;9.43;;;12.40;99.90;;;;;;10390030;28;20556;-69
2022/04/30 18:13:24;;;;;;;10.63;8.77;;;12.40;99.90;;;;;;10386011;28;20312;-69
2022/04/30 18:18:25;;;;;;;8.67;7.00;;;12.30;99.90;;;;;;10390870;28;20566;-68
2022/04/30 18:23:26;;;;;;;11.33;8.93;;;12.30;99.90;;;;;;10390419;28;20208;-68
2022/04/30 18:28:27;;;;;;;13.80;8.43;;;12.20;99.90;;;;;;10386521;28;20229;-69
2022/04/30 18:33:29;;;;;;;9.30;8.33;;;12.10;99.90;;;;;;10389558;28;20223;-69
2022/04/30 18:38:30;;;;;;;9.00;8.10;;;12.10;99.90;;;;;;10383581;28;20304;-69
2022/04/30 18:43:31;;;;;;;12.13;8.80;;;12.00;99.90;;;;;;10382871;28;20229;-69
2022/04/30 18:48:31;;;;;;;14.17;9.20;;;12.00;99.90;;;;;;10386214;28;20228;-67
2022/04/30 18:53:32;;;;;;;10.07;8.57;;;11.90;99.90;;;;;;10387895;28;20218;-68
2022/04/30 19:03:55;;;;;;;13.70;8.97;;;11.80;99.90;;;;;;10391460;28;20627;-69
2022/04/30 19:08:55;;;;;;;12.10;8.83;;;11.80;99.90;;;;;;10395337;28;20251;-68
2022/04/30 19:13:56;;;;;;;14.33;9.20;;;11.70;99.90;;;;;;10383542;28;20259;-68
2022/04/30 19:18:57;;;;;;;13.80;8.53;;;11.60;99.90;;;;;;10393271;28;20247;-69
2022/04/30 19:23:58;;;;;;;10.80;7.67;;;11.60;99.90;;;;;;10389831;28;20878;-68
2022/04/30 19:28:58;;;;;;;12.43;7.83;;;11.50;99.90;;;;;;10391894;28;20279;-68
2022/04/30 19:34:00;;;;;;;11.13;8.20;;;11.50;99.90;;;;;;10397562;28;20317;-68
2022/04/30 19:39:01;;;;;;;12.90;7.73;;;11.50;99.90;;;;;;10390155;28;20676;-69
2022/04/30 19:44:01;;;;;;;9.40;6.83;;;11.50;99.90;;;;;;10396135;28;20224;-69
2022/04/30 19:49:04;;;;;;;10.80;7.43;;;11.40;99.90;;;;;;10396399;28;20231;-69
2022/04/30 19:54:04;;;;;;;11.93;7.70;;;11.40;99.90;;;;;;10397845;28;20221;-67
2022/04/30 19:59:08;;;;;;;14.43;7.37;;;11.30;99.90;;;;;;10389752;28;20217;-69
2022/04/30 20:04:08;;;;;;;11.83;7.10;;;11.30;99.90;;;;;;10396275;28;20563;-68
2022/04/30 20:09:09;;;;;;;10.03;6.83;;;11.30;99.90;;;;;;10396254;28;20229;-67
2022/04/30 20:19:29;;;;;;;11.83;7.77;;;11.30;99.90;;;;;;10406927;28;20224;-68
2022/04/30 20:24:30;;;;;;;10.57;7.70;;;11.30;99.90;;;;;;10389052;28;20308;-68
2022/04/30 20:29:31;;;;;;;11.13;7.83;;;11.30;99.90;;;;;;10392385;28;20678;-68
2022/04/30 20:39:51;;;;;;;11.37;6.77;;;11.30;99.90;;;;;;10396604;28;20684;-69
2022/04/30 20:44:52;;;;;;;11.77;6.67;;;11.10;99.90;;;;;;10388431;28;20581;-68
2022/04/30 20:49:53;;;;;;;10.50;6.33;;;11.10;99.90;;;;;;10393927;28;20216;-68
2022/04/30 20:54:54;;;;;;;11.10;6.40;;;11.10;99.90;;;;;;10397253;28;20461;-68
2022/04/30 20:59:57;;;;;;;8.03;6.00;;;11.00;99.90;;;;;;10408357;28;20208;-69
2022/04/30 21:04:57;;;;;;;9.23;6.20;;;10.80;99.90;;;;;;10389766;28;20229;-69
2022/04/30 21:09:58;;;;;;;9.33;6.60;;;10.70;99.90;;;;;;10392689;28;20243;-68
2022/04/30 21:14:59;;;;;;;6.40;5.70;;;10.50;99.90;;;;;;10391223;28;20813;-69
2022/04/30 21:20:00;;;;;;;10.83;7.50;;;10.40;99.90;;;;;;10394799;28;20220;-69
2022/04/30 21:25:01;;;;;;;10.57;6.97;;;10.30;99.90;;;;;;10386982;28;20236;-69
2022/04/30 21:30:03;;;;;;;8.00;5.67;;;10.30;99.90;;;;;;10392198;28;20220;-69
2022/04/30 21:35:04;;;;;;;9.27;7.20;;;10.20;99.90;;;;;;10385095;28;20234;-68
2022/04/30 21:40:06;;;;;;;8.50;6.03;;;10.20;99.90;;;;;;10385164;28;20669;-69
2022/04/30 21:45:07;;;;;;;12.57;7.00;;;10.20;99.90;;;;;;10392204;28;20680;-68
2022/04/30 21:50:08;;;;;;;9.60;7.23;;;10.20;99.90;;;;;;10383816;28;20198;-67
2022/04/30 22:01:10;;;;;;;6.93;5.80;;;10.40;99.90;;;;;;10393123;28;20221;-69
2022/04/30 22:06:12;;;;;;;7.77;5.83;;;10.40;99.90;;;;;;10385267;28;20239;-70
2022/04/30 22:11:19;;;;;;;11.80;7.23;;;10.50;99.90;;;;;;10392593;28;20223;-69
2022/04/30 22:16:19;;;;;;;13.63;6.73;;;10.50;99.90;;;;;;10391956;28;20240;-68
2022/04/30 22:21:20;;;;;;;10.83;7.87;;;10.50;99.90;;;;;;10391874;28;20228;-68
2022/04/30 22:26:20;;;;;;;8.90;6.13;;;10.50;99.90;;;;;;10385465;28;20700;-68
2022/04/30 22:31:21;;;;;;;7.43;6.60;;;10.70;99.90;;;;;;10397102;28;20289;-69
2022/04/30 22:36:22;;;;;;;7.60;6.03;;;10.70;99.90;;;;;;10383947;28;20382;-69
2022/04/30 22:46:45;;;;;;;9.17;6.63;;;10.60;99.90;;;;;;10388080;28;20224;-69
2022/04/30 22:51:49;;;;;;;12.80;6.77;;;10.70;99.90;;;;;;10393246;28;20312;-68
2022/04/30 22:56:50;;;;;;;7.37;6.63;;;10.60;99.90;;;;;;10407967;28;20229;-69
2022/04/30 23:01:50;;;;;;;9.80;7.17;;;10.60;99.90;;;;;;10404758;28;20231;-68
2022/04/30 23:06:51;;;;;;;8.13;6.00;;;10.60;99.90;;;;;;10395752;28;20228;-69
2022/04/30 23:11:52;;;;;;;7.63;5.73;;;10.50;99.90;;;;;;10396914;28;20303;-69
2022/04/30 23:16:53;;;;;;;10.37;6.47;;;10.50;99.90;;;;;;10392589;28;20232;-69
2022/04/30 23:21:56;;;;;;;8.83;6.37;;;10.50;99.90;;;;;;10396336;28;20233;-68
2022/04/30 23:26:57;;;;;;;13.30;7.37;;;10.50;99.90;;;;;;10396511;28;20233;-69
2022/04/30 23:31:58;;;;;;;7.70;6.50;;;10.60;99.90;;;;;;10400855;28;20224;-69
2022/04/30 23:36:59;;;;;;;8.10;6.47;;;10.50;99.90;;;;;;10385413;28;20300;-68
2022/04/30 23:42:00;;;;;;;10.97;7.07;;;10.50;99.90;;;;;;10395631;28;20295;-69
2022/04/30 23:47:01;;;;;;;8.47;6.73;;;10.60;99.90;;;;;;10391187;28;20236;-69
2022/04/30 23:52:02;;;;;;;8.17;6.67;;;10.60;99.90;;;;;;10396498;28;20867;-69
2022/04/30 23:57:04;;;;;;;7.80;6.97;;;10.60;99.90;;;;;;10395490;28;20217;-69
